Terminal Aerodrome Forecast
Issued by NWS

Home | Current Version | Previous Version | Text Only | Print | Product List | Glossary On
Versions: 1 2 3 4 5 6 7 8 9 10 11 12 13 14 15 16 17 18
585
FTUS41 KCAR 140559
TAFFVE
TAF
KFVE 140559Z 1406/1506 33012G25KT P6SM OVC080
     FM141300 29010KT P6SM SCT140=

USA.gov is the U.S. government's official web portal to all federal, state and local government web resources and services.